sensor_id;sensor_type;location;lat;lon;timestamp;P1;durP1;ratioP1;P2;durP2;ratioP2
24159;SDS011;62385;41.594;23.808;2023-02-25T00:02:07;17.50;;;4.97;;
24159;SDS011;62385;41.594;23.808;2023-02-25T00:04:33;4.83;;;2.80;;
24159;SDS011;62385;41.594;23.808;2023-02-25T00:06:59;5.03;;;3.03;;
24159;SDS011;62385;41.594;23.808;2023-02-25T00:09:26;3.67;;;3.13;;
24159;SDS011;62385;41.594;23.808;2023-02-25T00:12:10;6.37;;;4.40;;
24159;SDS011;62385;41.594;23.808;2023-02-25T00:14:37;11.50;;;5.13;;
24159;SDS011;62385;41.594;23.808;2023-02-25T00:17:03;4.10;;;2.53;;
24159;SDS011;62385;41.594;23.808;2023-02-25T00:19:29;5.70;;;3.97;;
24159;SDS011;62385;41.594;23.808;2023-02-25T00:21:54;4.57;;;3.00;;
24159;SDS011;62385;41.594;23.808;2023-02-25T00:24:21;12.60;;;4.27;;
24159;SDS011;62385;41.594;23.808;2023-02-25T00:26:47;8.97;;;3.37;;
24159;SDS011;62385;41.594;23.808;2023-02-25T00:29:13;8.23;;;4.73;;
24159;SDS011;62385;41.594;23.808;2023-02-25T00:31:39;6.67;;;4.47;;
24159;SDS011;62385;41.594;23.808;2023-02-25T00:34:04;11.30;;;5.30;;
24159;SDS011;62385;41.594;23.808;2023-02-25T00:36:31;10.67;;;5.07;;
24159;SDS011;62385;41.594;23.808;2023-02-25T00:38:56;7.00;;;3.17;;
24159;SDS011;62385;41.594;23.808;2023-02-25T00:41:23;8.17;;;2.93;;
24159;SDS011;62385;41.594;23.808;2023-02-25T00:43:52;7.97;;;4.20;;
24159;SDS011;62385;41.594;23.808;2023-02-25T00:46:19;12.43;;;4.67;;
24159;SDS011;62385;41.594;23.808;2023-02-25T00:48:46;9.27;;;4.07;;
24159;SDS011;62385;41.594;23.808;2023-02-25T00:51:13;4.67;;;2.77;;
24159;SDS011;62385;41.594;23.808;2023-02-25T00:53:42;9.43;;;3.53;;
24159;SDS011;62385;41.594;23.808;2023-02-25T00:56:08;5.30;;;2.67;;
24159;SDS011;62385;41.594;23.808;2023-02-25T00:58:36;6.17;;;3.13;;
24159;SDS011;62385;41.594;23.808;2023-02-25T01:01:03;6.60;;;3.23;;
24159;SDS011;62385;41.594;23.808;2023-02-25T01:03:31;4.80;;;3.37;;
24159;SDS011;62385;41.594;23.808;2023-02-25T01:05:57;8.93;;;4.57;;
24159;SDS011;62385;41.594;23.808;2023-02-25T01:08:23;8.37;;;3.50;;
24159;SDS011;62385;41.594;23.808;2023-02-25T01:10:48;8.33;;;3.63;;
24159;SDS011;62385;41.594;23.808;2023-02-25T01:13:16;2.57;;;2.37;;
24159;SDS011;62385;41.594;23.808;2023-02-25T01:15:41;2.47;;;1.97;;
24159;SDS011;62385;41.594;23.808;2023-02-25T01:18:08;4.80;;;2.93;;
24159;SDS011;62385;41.594;23.808;2023-02-25T01:20:36;4.43;;;3.10;;
24159;SDS011;62385;41.594;23.808;2023-02-25T01:23:03;3.17;;;1.77;;
24159;SDS011;62385;41.594;23.808;2023-02-25T01:25:28;2.70;;;2.23;;
24159;SDS011;62385;41.594;23.808;2023-02-25T01:27:54;2.97;;;2.37;;
24159;SDS011;62385;41.594;23.808;2023-02-25T01:30:21;4.70;;;2.30;;
24159;SDS011;62385;41.594;23.808;2023-02-25T01:32:47;5.40;;;3.43;;
24159;SDS011;62385;41.594;23.808;2023-02-25T01:35:13;4.20;;;2.60;;
24159;SDS011;62385;41.594;23.808;2023-02-25T01:37:39;13.00;;;2.93;;
24159;SDS011;62385;41.594;23.808;2023-02-25T01:40:04;5.00;;;2.77;;
24159;SDS011;62385;41.594;23.808;2023-02-25T01:42:32;4.77;;;2.63;;
24159;SDS011;62385;41.594;23.808;2023-02-25T01:45:20;3.60;;;2.37;;
24159;SDS011;62385;41.594;23.808;2023-02-25T01:50:41;6.00;;;2.77;;
24159;SDS011;62385;41.594;23.808;2023-02-25T01:53:17;3.73;;;2.73;;
24159;SDS011;62385;41.594;23.808;2023-02-25T01:56:05;4.27;;;2.20;;
24159;SDS011;62385;41.594;23.808;2023-02-25T01:58:32;6.73;;;2.90;;
24159;SDS011;62385;41.594;23.808;2023-02-25T02:00:59;6.00;;;3.40;;
24159;SDS011;62385;41.594;23.808;2023-02-25T02:03:26;4.77;;;2.43;;
24159;SDS011;62385;41.594;23.808;2023-02-25T02:08:42;2.83;;;2.50;;
24159;SDS011;62385;41.594;23.808;2023-02-25T02:11:09;4.70;;;2.83;;
24159;SDS011;62385;41.594;23.808;2023-02-25T02:13:36;6.30;;;2.50;;
24159;SDS011;62385;41.594;23.808;2023-02-25T02:18:35;4.00;;;1.93;;
24159;SDS011;62385;41.594;23.808;2023-02-25T02:26:39;2.10;;;1.57;;
24159;SDS011;62385;41.594;23.808;2023-02-25T02:34:38;9.80;;;5.03;;
24159;SDS011;62385;41.594;23.808;2023-02-25T02:37:08;7.70;;;5.13;;
24159;SDS011;62385;41.594;23.808;2023-02-25T02:45:01;13.90;;;5.27;;
24159;SDS011;62385;41.594;23.808;2023-02-25T02:47:36;13.73;;;5.60;;
24159;SDS011;62385;41.594;23.808;2023-02-25T02:50:05;8.27;;;4.07;;
24159;SDS011;62385;41.594;23.808;2023-02-25T02:52:36;5.27;;;4.10;;
24159;SDS011;62385;41.594;23.808;2023-02-25T02:55:18;5.87;;;4.13;;
24159;SDS011;62385;41.594;23.808;2023-02-25T02:57:52;12.67;;;3.90;;
24159;SDS011;62385;41.594;23.808;2023-02-25T03:00:36;5.10;;;3.80;;
24159;SDS011;62385;41.594;23.808;2023-02-25T03:03:13;8.23;;;5.10;;
24159;SDS011;62385;41.594;23.808;2023-02-25T03:05:43;13.73;;;6.20;;
24159;SDS011;62385;41.594;23.808;2023-02-25T03:08:14;8.20;;;3.20;;
24159;SDS011;62385;41.594;23.808;2023-02-25T03:10:46;6.07;;;3.93;;
24159;SDS011;62385;41.594;23.808;2023-02-25T03:13:12;3.03;;;2.73;;
24159;SDS011;62385;41.594;23.808;2023-02-25T03:15:38;5.03;;;3.73;;
24159;SDS011;62385;41.594;23.808;2023-02-25T03:18:06;12.73;;;4.90;;
24159;SDS011;62385;41.594;23.808;2023-02-25T03:20:41;9.00;;;4.70;;
24159;SDS011;62385;41.594;23.808;2023-02-25T03:23:14;6.37;;;3.80;;
24159;SDS011;62385;41.594;23.808;2023-02-25T03:25:45;3.90;;;2.97;;
24159;SDS011;62385;41.594;23.808;2023-02-25T03:28:29;6.63;;;3.53;;
24159;SDS011;62385;41.594;23.808;2023-02-25T03:30:57;5.23;;;3.77;;
24159;SDS011;62385;41.594;23.808;2023-02-25T03:36:02;6.17;;;3.97;;
24159;SDS011;62385;41.594;23.808;2023-02-25T03:38:34;11.97;;;5.47;;
24159;SDS011;62385;41.594;23.808;2023-02-25T03:41:01;4.07;;;2.73;;
24159;SDS011;62385;41.594;23.808;2023-02-25T03:43:35;6.53;;;3.20;;
24159;SDS011;62385;41.594;23.808;2023-02-25T03:46:06;8.77;;;5.07;;
24159;SDS011;62385;41.594;23.808;2023-02-25T03:48:33;6.50;;;3.20;;
24159;SDS011;62385;41.594;23.808;2023-02-25T03:51:05;3.20;;;2.37;;
24159;SDS011;62385;41.594;23.808;2023-02-25T03:53:33;3.17;;;2.77;;
24159;SDS011;62385;41.594;23.808;2023-02-25T03:56:08;3.17;;;2.37;;
24159;SDS011;62385;41.594;23.808;2023-02-25T03:58:38;10.73;;;2.87;;
24159;SDS011;62385;41.594;23.808;2023-02-25T04:01:08;4.87;;;1.83;;
24159;SDS011;62385;41.594;23.808;2023-02-25T04:03:38;5.97;;;2.83;;
24159;SDS011;62385;41.594;23.808;2023-02-25T04:06:03;4.40;;;2.80;;
24159;SDS011;62385;41.594;23.808;2023-02-25T04:08:29;19.23;;;6.97;;
24159;SDS011;62385;41.594;23.808;2023-02-25T04:10:55;17.10;;;9.03;;
24159;SDS011;62385;41.594;23.808;2023-02-25T04:13:21;22.93;;;7.87;;
24159;SDS011;62385;41.594;23.808;2023-02-25T04:15:48;11.43;;;6.30;;
24159;SDS011;62385;41.594;23.808;2023-02-25T04:18:14;8.23;;;5.20;;
24159;SDS011;62385;41.594;23.808;2023-02-25T04:20:40;6.83;;;3.73;;
24159;SDS011;62385;41.594;23.808;2023-02-25T04:23:07;11.27;;;5.00;;
24159;SDS011;62385;41.594;23.808;2023-02-25T04:25:35;8.13;;;6.07;;
24159;SDS011;62385;41.594;23.808;2023-02-25T04:28:01;3.90;;;3.50;;
24159;SDS011;62385;41.594;23.808;2023-02-25T04:30:27;6.83;;;4.67;;
24159;SDS011;62385;41.594;23.808;2023-02-25T04:32:53;4.47;;;3.33;;
24159;SDS011;62385;41.594;23.808;2023-02-25T04:35:18;5.27;;;4.20;;
24159;SDS011;62385;41.594;23.808;2023-02-25T04:37:44;6.47;;;3.17;;
24159;SDS011;62385;41.594;23.808;2023-02-25T04:40:14;18.13;;;3.53;;
24159;SDS011;62385;41.594;23.808;2023-02-25T04:42:41;5.53;;;3.73;;
24159;SDS011;62385;41.594;23.808;2023-02-25T04:45:08;4.80;;;2.87;;
24159;SDS011;62385;41.594;23.808;2023-02-25T04:47:35;9.73;;;4.73;;
24159;SDS011;62385;41.594;23.808;2023-02-25T04:50:01;6.33;;;3.77;;
24159;SDS011;62385;41.594;23.808;2023-02-25T04:52:28;8.80;;;4.87;;
24159;SDS011;62385;41.594;23.808;2023-02-25T04:54:53;13.27;;;5.47;;
24159;SDS011;62385;41.594;23.808;2023-02-25T04:57:20;5.27;;;2.03;;
24159;SDS011;62385;41.594;23.808;2023-02-25T04:59:46;12.20;;;3.43;;
24159;SDS011;62385;41.594;23.808;2023-02-25T05:02:11;11.33;;;4.67;;
24159;SDS011;62385;41.594;23.808;2023-02-25T05:04:37;5.37;;;4.53;;
24159;SDS011;62385;41.594;23.808;2023-02-25T05:07:04;5.47;;;4.10;;
24159;SDS011;62385;41.594;23.808;2023-02-25T05:09:31;10.83;;;5.50;;
24159;SDS011;62385;41.594;23.808;2023-02-25T05:11:58;18.60;;;10.70;;
24159;SDS011;62385;41.594;23.808;2023-02-25T05:14:24;20.80;;;12.87;;
24159;SDS011;62385;41.594;23.808;2023-02-25T05:16:49;5.73;;;5.03;;
24159;SDS011;62385;41.594;23.808;2023-02-25T05:19:15;12.30;;;7.67;;
24159;SDS011;62385;41.594;23.808;2023-02-25T05:21:49;13.70;;;9.10;;
24159;SDS011;62385;41.594;23.808;2023-02-25T05:24:16;12.97;;;6.93;;
24159;SDS011;62385;41.594;23.808;2023-02-25T05:26:42;10.77;;;6.73;;
24159;SDS011;62385;41.594;23.808;2023-02-25T05:29:08;8.63;;;5.17;;
24159;SDS011;62385;41.594;23.808;2023-02-25T05:31:33;10.63;;;5.93;;
24159;SDS011;62385;41.594;23.808;2023-02-25T05:33:59;14.57;;;6.93;;
24159;SDS011;62385;41.594;23.808;2023-02-25T05:36:26;4.97;;;3.77;;
24159;SDS011;62385;41.594;23.808;2023-02-25T05:38:55;16.07;;;8.20;;
24159;SDS011;62385;41.594;23.808;2023-02-25T05:41:24;12.70;;;4.73;;
24159;SDS011;62385;41.594;23.808;2023-02-25T05:43:50;4.97;;;2.60;;
24159;SDS011;62385;41.594;23.808;2023-02-25T05:46:15;10.27;;;4.13;;
24159;SDS011;62385;41.594;23.808;2023-02-25T05:48:42;7.60;;;3.80;;
24159;SDS011;62385;41.594;23.808;2023-02-25T05:51:17;6.03;;;4.50;;
24159;SDS011;62385;41.594;23.808;2023-02-25T05:53:46;8.23;;;3.23;;
24159;SDS011;62385;41.594;23.808;2023-02-25T05:56:15;10.80;;;6.10;;
24159;SDS011;62385;41.594;23.808;2023-02-25T05:58:42;8.00;;;5.17;;
24159;SDS011;62385;41.594;23.808;2023-02-25T06:01:12;11.33;;;7.63;;
24159;SDS011;62385;41.594;23.808;2023-02-25T06:03:43;8.13;;;5.57;;
24159;SDS011;62385;41.594;23.808;2023-02-25T06:06:11;6.37;;;4.80;;
24159;SDS011;62385;41.594;23.808;2023-02-25T06:08:38;10.43;;;4.80;;
24159;SDS011;62385;41.594;23.808;2023-02-25T06:11:04;5.93;;;3.63;;
24159;SDS011;62385;41.594;23.808;2023-02-25T06:13:32;12.70;;;5.97;;
24159;SDS011;62385;41.594;23.808;2023-02-25T06:16:01;4.53;;;3.30;;
24159;SDS011;62385;41.594;23.808;2023-02-25T06:18:28;9.17;;;6.13;;
24159;SDS011;62385;41.594;23.808;2023-02-25T06:20:53;15.77;;;8.33;;
24159;SDS011;62385;41.594;23.808;2023-02-25T06:23:19;22.13;;;10.47;;
24159;SDS011;62385;41.594;23.808;2023-02-25T06:25:44;18.57;;;8.90;;
24159;SDS011;62385;41.594;23.808;2023-02-25T06:28:11;24.10;;;10.70;;
24159;SDS011;62385;41.594;23.808;2023-02-25T06:30:36;9.87;;;8.87;;
24159;SDS011;62385;41.594;23.808;2023-02-25T06:33:06;10.50;;;6.57;;
24159;SDS011;62385;41.594;23.808;2023-02-25T06:35:32;9.13;;;5.87;;
24159;SDS011;62385;41.594;23.808;2023-02-25T06:37:58;4.70;;;4.17;;
24159;SDS011;62385;41.594;23.808;2023-02-25T06:40:25;5.63;;;4.40;;
24159;SDS011;62385;41.594;23.808;2023-02-25T06:42:52;11.07;;;5.50;;
24159;SDS011;62385;41.594;23.808;2023-02-25T06:45:17;15.23;;;6.20;;
24159;SDS011;62385;41.594;23.808;2023-02-25T06:47:43;6.37;;;4.00;;
24159;SDS011;62385;41.594;23.808;2023-02-25T06:50:09;19.37;;;9.20;;
24159;SDS011;62385;41.594;23.808;2023-02-25T06:52:37;25.77;;;10.50;;
24159;SDS011;62385;41.594;23.808;2023-02-25T06:55:02;16.83;;;10.07;;
24159;SDS011;62385;41.594;23.808;2023-02-25T06:57:31;20.03;;;10.80;;
24159;SDS011;62385;41.594;23.808;2023-02-25T06:59:57;20.73;;;12.37;;
24159;SDS011;62385;41.594;23.808;2023-02-25T07:02:23;19.10;;;9.93;;
24159;SDS011;62385;41.594;23.808;2023-02-25T07:04:51;15.27;;;10.77;;
24159;SDS011;62385;41.594;23.808;2023-02-25T07:07:18;13.67;;;8.80;;
24159;SDS011;62385;41.594;23.808;2023-02-25T07:09:43;14.73;;;7.93;;
24159;SDS011;62385;41.594;23.808;2023-02-25T07:12:09;21.23;;;8.07;;
24159;SDS011;62385;41.594;23.808;2023-02-25T07:14:34;20.60;;;11.37;;
24159;SDS011;62385;41.594;23.808;2023-02-25T07:17:01;8.63;;;7.60;;
24159;SDS011;62385;41.594;23.808;2023-02-25T07:19:28;12.73;;;7.27;;
24159;SDS011;62385;41.594;23.808;2023-02-25T07:21:53;18.40;;;9.70;;
24159;SDS011;62385;41.594;23.808;2023-02-25T07:24:19;16.40;;;7.20;;
24159;SDS011;62385;41.594;23.808;2023-02-25T07:26:45;12.73;;;6.97;;
24159;SDS011;62385;41.594;23.808;2023-02-25T07:29:10;19.57;;;8.23;;
24159;SDS011;62385;41.594;23.808;2023-02-25T07:31:37;12.13;;;7.60;;
24159;SDS011;62385;41.594;23.808;2023-02-25T07:34:04;10.70;;;6.43;;
24159;SDS011;62385;41.594;23.808;2023-02-25T07:36:33;18.53;;;7.53;;
24159;SDS011;62385;41.594;23.808;2023-02-25T07:39:02;10.63;;;5.90;;
24159;SDS011;62385;41.594;23.808;2023-02-25T07:41:30;9.80;;;6.17;;
24159;SDS011;62385;41.594;23.808;2023-02-25T07:44:01;16.53;;;7.20;;
24159;SDS011;62385;41.594;23.808;2023-02-25T07:46:28;10.47;;;4.47;;
24159;SDS011;62385;41.594;23.808;2023-02-25T07:48:54;8.33;;;4.13;;
24159;SDS011;62385;41.594;23.808;2023-02-25T07:51:21;7.23;;;4.80;;
24159;SDS011;62385;41.594;23.808;2023-02-25T07:53:47;8.23;;;4.47;;
24159;SDS011;62385;41.594;23.808;2023-02-25T07:56:15;10.50;;;6.37;;
24159;SDS011;62385;41.594;23.808;2023-02-25T07:58:42;9.37;;;6.53;;
24159;SDS011;62385;41.594;23.808;2023-02-25T08:01:09;15.90;;;8.80;;
24159;SDS011;62385;41.594;23.808;2023-02-25T08:03:35;12.33;;;6.57;;
24159;SDS011;62385;41.594;23.808;2023-02-25T08:06:01;16.10;;;8.60;;
24159;SDS011;62385;41.594;23.808;2023-02-25T08:08:36;12.03;;;7.10;;
24159;SDS011;62385;41.594;23.808;2023-02-25T08:11:06;12.00;;;6.90;;
24159;SDS011;62385;41.594;23.808;2023-02-25T08:13:33;23.37;;;8.47;;
24159;SDS011;62385;41.594;23.808;2023-02-25T08:15:59;13.23;;;5.50;;
24159;SDS011;62385;41.594;23.808;2023-02-25T08:18:27;9.87;;;4.73;;
24159;SDS011;62385;41.594;23.808;2023-02-25T08:20:53;12.33;;;5.57;;
24159;SDS011;62385;41.594;23.808;2023-02-25T08:23:20;11.27;;;7.93;;
24159;SDS011;62385;41.594;23.808;2023-02-25T08:25:45;12.20;;;6.77;;
24159;SDS011;62385;41.594;23.808;2023-02-25T08:28:12;8.57;;;6.00;;
24159;SDS011;62385;41.594;23.808;2023-02-25T08:30:37;30.77;;;9.97;;
24159;SDS011;62385;41.594;23.808;2023-02-25T08:33:03;7.33;;;5.33;;
24159;SDS011;62385;41.594;23.808;2023-02-25T08:35:28;13.97;;;5.83;;
24159;SDS011;62385;41.594;23.808;2023-02-25T08:37:54;13.75;;;5.70;;
24159;SDS011;62385;41.594;23.808;2023-02-25T08:40:20;9.45;;;4.18;;
24159;SDS011;62385;41.594;23.808;2023-02-25T08:42:46;8.30;;;4.70;;
24159;SDS011;62385;41.594;23.808;2023-02-25T08:45:11;9.97;;;4.00;;
24159;SDS011;62385;41.594;23.808;2023-02-25T08:47:56;4.77;;;3.57;;
24159;SDS011;62385;41.594;23.808;2023-02-25T08:50:22;5.30;;;3.95;;
24159;SDS011;62385;41.594;23.808;2023-02-25T08:52:49;16.77;;;3.90;;
24159;SDS011;62385;41.594;23.808;2023-02-25T08:55:15;5.27;;;3.33;;
24159;SDS011;62385;41.594;23.808;2023-02-25T08:57:42;8.70;;;3.70;;
24159;SDS011;62385;41.594;23.808;2023-02-25T09:00:09;9.63;;;4.17;;
24159;SDS011;62385;41.594;23.808;2023-02-25T09:02:37;7.53;;;3.83;;
24159;SDS011;62385;41.594;23.808;2023-02-25T09:05:02;4.47;;;2.77;;
24159;SDS011;62385;41.594;23.808;2023-02-25T09:07:28;14.07;;;4.47;;
24159;SDS011;62385;41.594;23.808;2023-02-25T09:09:55;7.28;;;4.65;;
24159;SDS011;62385;41.594;23.808;2023-02-25T09:12:20;6.60;;;3.67;;
24159;SDS011;62385;41.594;23.808;2023-02-25T09:14:46;6.97;;;4.45;;
24159;SDS011;62385;41.594;23.808;2023-02-25T09:17:12;7.50;;;3.28;;
24159;SDS011;62385;41.594;23.808;2023-02-25T09:19:38;5.63;;;3.60;;
24159;SDS011;62385;41.594;23.808;2023-02-25T09:22:05;6.20;;;2.65;;
24159;SDS011;62385;41.594;23.808;2023-02-25T09:24:31;9.43;;;3.92;;
24159;SDS011;62385;41.594;23.808;2023-02-25T09:27:03;6.00;;;4.68;;
24159;SDS011;62385;41.594;23.808;2023-02-25T09:29:35;5.43;;;3.88;;
24159;SDS011;62385;41.594;23.808;2023-02-25T09:32:03;5.95;;;3.55;;
24159;SDS011;62385;41.594;23.808;2023-02-25T09:34:30;7.15;;;3.10;;
24159;SDS011;62385;41.594;23.808;2023-02-25T09:37:02;5.57;;;3.70;;
24159;SDS011;62385;41.594;23.808;2023-02-25T09:39:28;5.88;;;4.20;;
24159;SDS011;62385;41.594;23.808;2023-02-25T09:42:05;11.60;;;5.43;;
24159;SDS011;62385;41.594;23.808;2023-02-25T09:55:31;3.80;;;2.58;;
24159;SDS011;62385;41.594;23.808;2023-02-25T10:00:28;10.70;;;4.65;;
24159;SDS011;62385;41.594;23.808;2023-02-25T10:03:20;9.88;;;4.63;;
24159;SDS011;62385;41.594;23.808;2023-02-25T10:08:48;10.75;;;4.65;;
24159;SDS011;62385;41.594;23.808;2023-02-25T10:17:36;10.48;;;4.03;;
24159;SDS011;62385;41.594;23.808;2023-02-25T10:22:53;4.03;;;3.60;;
24159;SDS011;62385;41.594;23.808;2023-02-25T10:25:31;5.60;;;3.95;;
24159;SDS011;62385;41.594;23.808;2023-02-25T10:28:02;6.60;;;3.35;;
24159;SDS011;62385;41.594;23.808;2023-02-25T10:30:49;4.63;;;3.15;;
24159;SDS011;62385;41.594;23.808;2023-02-25T10:33:24;5.47;;;3.08;;
24159;SDS011;62385;41.594;23.808;2023-02-25T10:36:08;5.55;;;3.20;;
24159;SDS011;62385;41.594;23.808;2023-02-25T10:38:50;5.72;;;2.45;;
24159;SDS011;62385;41.594;23.808;2023-02-25T10:41:17;4.10;;;2.17;;
24159;SDS011;62385;41.594;23.808;2023-02-25T10:43:46;7.53;;;4.10;;
24159;SDS011;62385;41.594;23.808;2023-02-25T10:46:33;4.03;;;2.42;;
24159;SDS011;62385;41.594;23.808;2023-02-25T10:49:16;3.30;;;2.45;;
24159;SDS011;62385;41.594;23.808;2023-02-25T10:52:30;7.15;;;2.80;;
24159;SDS011;62385;41.594;23.808;2023-02-25T10:54:44;3.28;;;2.03;;
24159;SDS011;62385;41.594;23.808;2023-02-25T10:57:15;3.67;;;2.65;;
24159;SDS011;62385;41.594;23.808;2023-02-25T10:59:43;8.85;;;2.25;;
24159;SDS011;62385;41.594;23.808;2023-02-25T11:04:49;8.27;;;3.22;;
24159;SDS011;62385;41.594;23.808;2023-02-25T11:10:07;2.72;;;1.63;;
24159;SDS011;62385;41.594;23.808;2023-02-25T11:12:40;4.88;;;1.60;;
24159;SDS011;62385;41.594;23.808;2023-02-25T11:17:58;8.80;;;2.53;;
24159;SDS011;62385;41.594;23.808;2023-02-25T11:20:30;2.58;;;1.98;;
24159;SDS011;62385;41.594;23.808;2023-02-25T11:22:56;6.13;;;2.75;;
24159;SDS011;62385;41.594;23.808;2023-02-25T11:25:37;7.93;;;2.42;;
24159;SDS011;62385;41.594;23.808;2023-02-25T11:28:07;2.78;;;1.45;;
24159;SDS011;62385;41.594;23.808;2023-02-25T11:31:11;5.88;;;2.40;;
24159;SDS011;62385;41.594;23.808;2023-02-25T11:33:41;3.00;;;2.10;;
24159;SDS011;62385;41.594;23.808;2023-02-25T11:36:09;2.00;;;1.27;;
24159;SDS011;62385;41.594;23.808;2023-02-25T11:38:40;1.30;;;1.20;;
24159;SDS011;62385;41.594;23.808;2023-02-25T11:41:19;2.22;;;1.45;;
24159;SDS011;62385;41.594;23.808;2023-02-25T11:43:47;3.90;;;2.13;;
24159;SDS011;62385;41.594;23.808;2023-02-25T11:51:27;8.18;;;1.90;;
24159;SDS011;62385;41.594;23.808;2023-02-25T12:40:00;2.83;;;0.90;;
24159;SDS011;62385;41.594;23.808;2023-02-25T12:42:46;5.00;;;2.15;;
24159;SDS011;62385;41.594;23.808;2023-02-25T12:59:21;4.70;;;2.05;;
24159;SDS011;62385;41.594;23.808;2023-02-25T13:15:08;1.50;;;0.82;;
24159;SDS011;62385;41.594;23.808;2023-02-25T13:28:34;1.88;;;1.48;;
24159;SDS011;62385;41.594;23.808;2023-02-25T13:39:59;2.00;;;0.90;;
24159;SDS011;62385;41.594;23.808;2023-02-25T13:58:47;3.20;;;1.83;;
24159;SDS011;62385;41.594;23.808;2023-02-25T14:26:28;3.42;;;2.15;;
24159;SDS011;62385;41.594;23.808;2023-02-25T14:37:42;5.68;;;2.65;;
24159;SDS011;62385;41.594;23.808;2023-02-25T14:45:42;6.75;;;3.47;;
24159;SDS011;62385;41.594;23.808;2023-02-25T14:56:46;4.97;;;3.05;;
24159;SDS011;62385;41.594;23.808;2023-02-25T15:16:14;4.55;;;2.95;;
24159;SDS011;62385;41.594;23.808;2023-02-25T15:21:38;7.55;;;4.45;;
24159;SDS011;62385;41.594;23.808;2023-02-25T15:24:09;4.15;;;3.25;;
24159;SDS011;62385;41.594;23.808;2023-02-25T15:26:56;8.27;;;3.95;;
24159;SDS011;62385;41.594;23.808;2023-02-25T15:34:35;7.30;;;4.00;;
24159;SDS011;62385;41.594;23.808;2023-02-25T15:42:41;7.00;;;3.25;;
24159;SDS011;62385;41.594;23.808;2023-02-25T15:55:45;13.00;;;4.88;;
24159;SDS011;62385;41.594;23.808;2023-02-25T16:06:04;8.70;;;3.85;;
24159;SDS011;62385;41.594;23.808;2023-02-25T16:14:20;8.35;;;4.38;;
24159;SDS011;62385;41.594;23.808;2023-02-25T16:17:02;13.68;;;3.83;;
24159;SDS011;62385;41.594;23.808;2023-02-25T16:19:38;14.88;;;4.20;;
24159;SDS011;62385;41.594;23.808;2023-02-25T16:22:15;5.15;;;3.17;;
24159;SDS011;62385;41.594;23.808;2023-02-25T16:25:03;7.18;;;3.65;;
24159;SDS011;62385;41.594;23.808;2023-02-25T16:30:53;7.18;;;3.55;;
24159;SDS011;62385;41.594;23.808;2023-02-25T16:39:19;10.38;;;3.63;;
24159;SDS011;62385;41.594;23.808;2023-02-25T16:41:47;4.90;;;3.55;;
24159;SDS011;62385;41.594;23.808;2023-02-25T16:44:27;13.30;;;5.68;;
24159;SDS011;62385;41.594;23.808;2023-02-25T16:46:57;7.50;;;5.18;;
24159;SDS011;62385;41.594;23.808;2023-02-25T16:49:30;6.20;;;3.55;;
24159;SDS011;62385;41.594;23.808;2023-02-25T16:52:01;4.07;;;2.88;;
24159;SDS011;62385;41.594;23.808;2023-02-25T16:54:34;11.57;;;4.60;;
24159;SDS011;62385;41.594;23.808;2023-02-25T16:57:03;4.53;;;3.15;;
24159;SDS011;62385;41.594;23.808;2023-02-25T16:59:32;6.50;;;3.70;;
24159;SDS011;62385;41.594;23.808;2023-02-25T17:02:01;9.90;;;4.00;;
24159;SDS011;62385;41.594;23.808;2023-02-25T17:07:15;11.30;;;3.78;;
24159;SDS011;62385;41.594;23.808;2023-02-25T17:12:30;7.22;;;3.80;;
24159;SDS011;62385;41.594;23.808;2023-02-25T17:15:02;12.27;;;4.40;;
24159;SDS011;62385;41.594;23.808;2023-02-25T17:17:34;6.68;;;2.60;;
24159;SDS011;62385;41.594;23.808;2023-02-25T17:20:02;6.18;;;3.08;;
24159;SDS011;62385;41.594;23.808;2023-02-25T17:22:36;5.20;;;2.88;;
24159;SDS011;62385;41.594;23.808;2023-02-25T17:25:03;7.93;;;3.63;;
24159;SDS011;62385;41.594;23.808;2023-02-25T17:27:30;5.60;;;2.78;;
24159;SDS011;62385;41.594;23.808;2023-02-25T17:29:56;3.45;;;3.03;;
24159;SDS011;62385;41.594;23.808;2023-02-25T17:32:28;8.27;;;3.53;;
24159;SDS011;62385;41.594;23.808;2023-02-25T17:34:59;6.68;;;2.80;;
24159;SDS011;62385;41.594;23.808;2023-02-25T17:37:28;6.03;;;3.17;;
24159;SDS011;62385;41.594;23.808;2023-02-25T17:39:55;6.53;;;4.85;;
24159;SDS011;62385;41.594;23.808;2023-02-25T17:44:54;3.90;;;2.85;;
24159;SDS011;62385;41.594;23.808;2023-02-25T17:47:21;10.55;;;3.17;;
24159;SDS011;62385;41.594;23.808;2023-02-25T17:49:50;5.55;;;3.17;;
24159;SDS011;62385;41.594;23.808;2023-02-25T17:52:18;8.85;;;4.30;;
24159;SDS011;62385;41.594;23.808;2023-02-25T17:55:05;6.38;;;3.25;;
24159;SDS011;62385;41.594;23.808;2023-02-25T17:57:43;4.97;;;3.45;;
24159;SDS011;62385;41.594;23.808;2023-02-25T18:00:17;8.85;;;3.42;;
24159;SDS011;62385;41.594;23.808;2023-02-25T18:02:46;4.22;;;3.45;;
24159;SDS011;62385;41.594;23.808;2023-02-25T18:07:41;9.68;;;4.15;;
24159;SDS011;62385;41.594;23.808;2023-02-25T18:12:56;3.53;;;1.90;;
24159;SDS011;62385;41.594;23.808;2023-02-25T18:15:24;4.03;;;3.15;;
24159;SDS011;62385;41.594;23.808;2023-02-25T18:17:56;6.18;;;2.75;;
24159;SDS011;62385;41.594;23.808;2023-02-25T18:27:54;5.97;;;3.28;;
24159;SDS011;62385;41.594;23.808;2023-02-25T18:30:21;8.50;;;3.83;;
24159;SDS011;62385;41.594;23.808;2023-02-25T18:32:48;10.00;;;3.63;;
24159;SDS011;62385;41.594;23.808;2023-02-25T18:35:14;12.18;;;4.18;;
24159;SDS011;62385;41.594;23.808;2023-02-25T18:37:41;10.07;;;3.78;;
24159;SDS011;62385;41.594;23.808;2023-02-25T18:40:30;13.23;;;3.15;;
24159;SDS011;62385;41.594;23.808;2023-02-25T18:42:59;8.43;;;3.13;;
24159;SDS011;62385;41.594;23.808;2023-02-25T18:45:26;8.38;;;4.40;;
24159;SDS011;62385;41.594;23.808;2023-02-25T18:47:54;5.68;;;3.28;;
24159;SDS011;62385;41.594;23.808;2023-02-25T18:50:21;5.95;;;2.85;;
24159;SDS011;62385;41.594;23.808;2023-02-25T18:52:48;6.80;;;2.80;;
24159;SDS011;62385;41.594;23.808;2023-02-25T18:55:19;6.70;;;3.30;;
24159;SDS011;62385;41.594;23.808;2023-02-25T18:57:49;6.43;;;2.33;;
24159;SDS011;62385;41.594;23.808;2023-02-25T19:00:16;4.68;;;2.65;;
24159;SDS011;62385;41.594;23.808;2023-02-25T19:02:53;9.57;;;3.13;;
24159;SDS011;62385;41.594;23.808;2023-02-25T19:05:22;4.53;;;2.45;;
24159;SDS011;62385;41.594;23.808;2023-02-25T19:07:49;6.82;;;3.70;;
24159;SDS011;62385;41.594;23.808;2023-02-25T19:10:16;5.55;;;3.53;;
24159;SDS011;62385;41.594;23.808;2023-02-25T19:12:49;19.67;;;4.22;;
24159;SDS011;62385;41.594;23.808;2023-02-25T19:15:17;12.35;;;3.80;;
24159;SDS011;62385;41.594;23.808;2023-02-25T19:17:46;6.32;;;3.63;;
24159;SDS011;62385;41.594;23.808;2023-02-25T19:20:13;8.30;;;4.40;;
24159;SDS011;62385;41.594;23.808;2023-02-25T19:22:41;4.78;;;2.95;;
24159;SDS011;62385;41.594;23.808;2023-02-25T19:27:53;4.22;;;2.88;;
24159;SDS011;62385;41.594;23.808;2023-02-25T19:30:21;6.32;;;3.67;;
24159;SDS011;62385;41.594;23.808;2023-02-25T19:32:49;5.18;;;2.88;;
24159;SDS011;62385;41.594;23.808;2023-02-25T19:35:15;7.55;;;3.58;;
24159;SDS011;62385;41.594;23.808;2023-02-25T19:37:41;4.70;;;2.58;;
24159;SDS011;62385;41.594;23.808;2023-02-25T19:40:08;11.45;;;4.65;;
24159;SDS011;62385;41.594;23.808;2023-02-25T19:42:36;6.78;;;4.07;;
24159;SDS011;62385;41.594;23.808;2023-02-25T19:45:03;11.75;;;3.35;;
24159;SDS011;62385;41.594;23.808;2023-02-25T19:47:30;5.78;;;3.13;;
24159;SDS011;62385;41.594;23.808;2023-02-25T19:49:55;11.75;;;3.30;;
24159;SDS011;62385;41.594;23.808;2023-02-25T19:52:21;5.97;;;3.00;;
24159;SDS011;62385;41.594;23.808;2023-02-25T19:54:47;2.97;;;2.63;;